Greenbelt, Maryland
Current Conditions -  °F | °C
As of 11:15 AM on Sunday 25 Jan 2015 (Local Time) from KCGS Reporting Station
Clear Clear  
Wind Chill: 10°   Ceiling: Unl
Heat Index: 10°   Visibility: 10mi
Dew Point: -1°   Wind: 8mph
Humidity: 47%   Direction: 260°W
Pressure: 29.84"   Gusts: 17mph
Location:  39°N, 76.88°W
Report Text: KCGS 251615Z AUTO 26007G15KT 220V300 10SM CLR 10/M01 A2984 RMK AO1
Loading
Personal Weather Stations






























Interactive Weather Map New forecast layout! Learn more

10-Day Weather Forecast

Advertisements
Track Severe Weather on mobile